createdAt,value
2016-12-05T00:00:18.608Z,2.71
2016-12-05T00:00:44.689Z,2.72
2016-12-05T00:01:10.781Z,2.68
2016-12-05T00:01:36.895Z,2.69
2016-12-05T00:02:02.980Z,2.6
2016-12-05T00:02:29.089Z,2.67
2016-12-05T00:02:55.186Z,2.64
2016-12-05T00:03:21.273Z,2.53
2016-12-05T00:03:47.452Z,2.67
2016-12-05T00:04:13.542Z,2.65
2016-12-05T00:04:39.669Z,2.62
2016-12-05T00:05:05.751Z,2.65
2016-12-05T00:05:31.839Z,2.67
2016-12-05T00:05:57.936Z,2.62
2016-12-05T00:06:24.016Z,2.61
2016-12-05T00:06:50.107Z,2.71
2016-12-05T00:07:16.203Z,2.72
2016-12-05T00:07:42.284Z,2.72
2016-12-05T00:08:08.372Z,2.75
2016-12-05T00:08:34.467Z,2.68
2016-12-05T00:09:00.557Z,2.77
2016-12-05T00:09:26.637Z,2.79
2016-12-05T00:09:52.733Z,2.9
2016-12-05T00:10:18.822Z,2.82
2016-12-05T00:10:44.901Z,2.9
2016-12-05T00:11:10.995Z,2.89
2016-12-05T00:11:37.075Z,2.85
2016-12-05T00:12:03.175Z,2.9
2016-12-05T00:12:29.258Z,2.93
2016-12-05T00:12:55.346Z,2.86
2016-12-05T00:13:21.438Z,2.77
2016-12-05T00:13:47.525Z,2.82
2016-12-05T00:14:13.603Z,2.75
2016-12-05T00:14:39.700Z,2.72
2016-12-05T00:15:05.797Z,2.71
2016-12-05T00:15:31.874Z,2.71
2016-12-05T00:15:57.965Z,2.77
2016-12-05T00:16:24.058Z,2.62
2016-12-05T00:16:50.139Z,2.71
2016-12-05T00:17:16.235Z,2.71
2016-12-05T00:17:42.315Z,2.68
2016-12-05T00:18:08.411Z,2.68
2016-12-05T00:18:34.499Z,2.75
2016-12-05T00:19:00.579Z,2.69
2016-12-05T00:19:26.666Z,2.69
2016-12-05T00:19:52.761Z,2.75
2016-12-05T00:20:18.839Z,2.69
2016-12-05T00:20:44.925Z,2.71
2016-12-05T00:21:11.021Z,2.79
2016-12-05T00:21:37.104Z,2.77
2016-12-05T00:22:03.187Z,2.72
2016-12-05T00:22:29.277Z,2.86
2016-12-05T00:22:55.367Z,2.82
2016-12-05T00:23:21.460Z,2.82
2016-12-05T00:23:47.540Z,2.83
2016-12-05T00:24:13.628Z,2.86
2016-12-05T00:24:39.717Z,2.82
2016-12-05T00:25:05.801Z,2.75
2016-12-05T00:25:31.881Z,2.74
2016-12-05T00:25:57.977Z,2.75
2016-12-05T00:26:24.061Z,2.75
2016-12-05T00:26:50.140Z,2.71
2016-12-05T00:27:16.232Z,2.71
2016-12-05T00:27:42.321Z,2.57
2016-12-05T00:28:08.406Z,2.67
2016-12-05T00:28:34.496Z,2.61
2016-12-05T00:29:00.592Z,2.68
2016-12-05T00:29:26.671Z,2.64
2016-12-05T00:29:52.760Z,2.68
2016-12-05T00:30:18.855Z,2.57
2016-12-05T00:30:44.932Z,2.54
2016-12-05T00:31:11.021Z,2.57
2016-12-05T00:31:37.118Z,2.54
2016-12-05T00:32:03.195Z,2.62
2016-12-05T00:32:29.275Z,2.64
2016-12-05T00:32:55.374Z,2.64
2016-12-05T00:33:21.465Z,2.57
2016-12-05T00:33:47.657Z,2.64
2016-12-05T00:34:13.736Z,2.64
2016-12-05T00:34:39.820Z,2.62
2016-12-05T00:35:05.917Z,2.69
2016-12-05T00:35:31.996Z,2.77
2016-12-05T00:35:58.080Z,2.72
2016-12-05T00:36:24.180Z,2.72
2016-12-05T00:36:50.265Z,2.77
2016-12-05T00:37:16.343Z,2.74
2016-12-05T00:37:42.438Z,2.72
2016-12-05T00:38:08.531Z,2.69
2016-12-05T00:38:34.612Z,2.71
2016-12-05T00:39:00.702Z,2.64
2016-12-05T00:39:26.777Z,2.72
2016-12-05T00:39:52.878Z,2.62
2016-12-05T00:40:18.963Z,2.72
2016-12-05T00:40:45.044Z,2.75
2016-12-05T00:41:11.140Z,2.75
2016-12-05T00:41:37.231Z,2.82
2016-12-05T00:42:03.312Z,2.8
2016-12-05T00:42:29.403Z,2.71
2016-12-05T00:42:55.495Z,2.89
2016-12-05T00:43:21.574Z,2.75
2016-12-05T00:43:47.661Z,2.85
2016-12-05T00:44:13.760Z,2.86
2016-12-05T00:44:39.839Z,2.74
2016-12-05T00:45:05.928Z,2.72
2016-12-05T00:45:32.009Z,2.79
2016-12-05T00:45:58.101Z,2.85
2016-12-05T00:46:24.191Z,2.77
2016-12-05T00:46:50.263Z,2.85
2016-12-05T00:47:16.353Z,2.8
2016-12-05T00:47:42.448Z,2.82
2016-12-05T00:48:08.527Z,2.71
2016-12-05T00:48:34.609Z,2.79
2016-12-05T00:49:00.702Z,2.8
2016-12-05T00:49:26.787Z,2.8
2016-12-05T00:49:52.868Z,2.87
2016-12-05T00:50:18.966Z,2.77
2016-12-05T00:50:45.053Z,2.69
2016-12-05T00:51:11.132Z,2.69
2016-12-05T00:51:37.230Z,2.69
2016-12-05T00:52:03.319Z,2.62
2016-12-05T00:52:29.402Z,2.65
2016-12-05T00:52:55.488Z,2.54
2016-12-05T00:53:21.587Z,2.64
2016-12-05T00:53:47.665Z,2.68
2016-12-05T00:54:13.755Z,2.62
2016-12-05T00:54:39.852Z,2.61
2016-12-05T00:55:05.930Z,2.71
2016-12-05T00:55:32.016Z,2.65
2016-12-05T00:55:58.097Z,2.75
2016-12-05T00:56:24.188Z,2.65
2016-12-05T00:56:50.279Z,2.62
2016-12-05T00:57:16.358Z,2.62
2016-12-05T00:57:42.447Z,2.67
2016-12-05T00:58:08.539Z,2.64
2016-12-05T00:58:34.621Z,2.65
2016-12-05T00:59:00.707Z,2.68
2016-12-05T00:59:26.802Z,2.67
2016-12-05T00:59:52.910Z,2.65
2016-12-05T01:00:18.990Z,2.65
2016-12-05T01:00:45.088Z,2.68
2016-12-05T01:01:11.173Z,2.62
2016-12-05T01:01:37.269Z,2.68
2016-12-05T01:02:03.346Z,2.65
2016-12-05T01:02:29.431Z,2.69
2016-12-05T01:02:55.527Z,2.67
2016-12-05T01:03:21.614Z,2.53
2016-12-05T01:03:47.690Z,2.51
2016-12-05T01:04:13.789Z,2.54
2016-12-05T01:04:39.877Z,2.47
2016-12-05T01:05:05.960Z,2.54
2016-12-05T01:05:32.059Z,2.53
2016-12-05T01:05:58.153Z,2.62
2016-12-05T01:06:24.232Z,2.57
2016-12-05T01:06:50.323Z,2.6
2016-12-05T01:07:16.406Z,2.38
2016-12-05T01:07:42.504Z,2.5
2016-12-05T01:08:08.590Z,2.44
2016-12-05T01:08:34.671Z,2.39
2016-12-05T01:09:00.766Z,2.49
2016-12-05T01:09:26.850Z,2.43
2016-12-05T01:09:52.934Z,2.46
2016-12-05T01:10:19.024Z,2.54
2016-12-05T01:10:45.120Z,2.42
2016-12-05T01:11:11.198Z,2.42
2016-12-05T01:11:37.288Z,2.33
2016-12-05T01:12:03.379Z,2.32
2016-12-05T01:12:29.458Z,2.33
2016-12-05T01:12:55.549Z,2.38
2016-12-05T01:13:21.628Z,2.36
2016-12-05T01:13:47.719Z,2.42
2016-12-05T01:14:13.812Z,2.35
2016-12-05T01:14:39.892Z,2.38
2016-12-05T01:15:05.979Z,2.46
2016-12-05T01:15:32.075Z,2.38
2016-12-05T01:15:58.154Z,2.36
2016-12-05T01:16:24.238Z,2.43
2016-12-05T01:16:50.334Z,2.38
2016-12-05T01:17:16.422Z,2.36
2016-12-05T01:17:42.503Z,2.35
2016-12-05T01:18:08.591Z,2.39
2016-12-05T01:18:34.683Z,2.35
2016-12-05T01:19:00.776Z,2.33
2016-12-05T01:19:26.851Z,2.33
2016-12-05T01:19:52.961Z,2.36
2016-12-05T01:20:19.056Z,2.35
2016-12-05T01:20:45.141Z,2.43
2016-12-05T01:21:11.220Z,2.36
2016-12-05T01:21:37.314Z,2.33
2016-12-05T01:22:03.401Z,2.47
2016-12-05T01:22:29.481Z,2.38
2016-12-05T01:22:55.574Z,2.36
2016-12-05T01:23:21.665Z,2.38
2016-12-05T01:23:47.749Z,2.42
2016-12-05T01:24:13.932Z,2.33
2016-12-05T01:24:40.013Z,2.42
2016-12-05T01:25:06.111Z,2.39
2016-12-05T01:25:32.192Z,2.42
2016-12-05T01:25:58.272Z,2.43
2016-12-05T01:26:24.369Z,2.47
2016-12-05T01:26:50.455Z,2.53
2016-12-05T01:27:16.537Z,2.42
2016-12-05T01:27:42.631Z,2.42
2016-12-05T01:28:08.733Z,2.46
2016-12-05T01:28:34.812Z,2.44
2016-12-05T01:29:00.899Z,2.49
2016-12-05T01:29:26.983Z,2.46
2016-12-05T01:29:53.079Z,2.51
2016-12-05T01:30:19.167Z,2.46
2016-12-05T01:30:45.248Z,2.46
2016-12-05T01:31:11.344Z,2.43
2016-12-05T01:31:37.437Z,2.36
2016-12-05T01:32:03.511Z,2.39
2016-12-05T01:32:29.601Z,2.42
2016-12-05T01:32:55.692Z,2.44
2016-12-05T01:33:21.773Z,2.36
2016-12-05T01:33:47.857Z,2.35
2016-12-05T01:34:13.951Z,2.39
2016-12-05T01:34:40.037Z,2.33
2016-12-05T01:35:06.115Z,2.33
2016-12-05T01:35:32.210Z,2.29
2016-12-05T01:35:58.296Z,2.38
2016-12-05T01:36:24.374Z,2.29
2016-12-05T01:36:50.466Z,2.33
2016-12-05T01:37:16.552Z,2.33
2016-12-05T01:37:42.633Z,2.36
2016-12-05T01:38:08.722Z,2.29
2016-12-05T01:38:34.813Z,2.36
2016-12-05T01:39:00.894Z,2.35
2016-12-05T01:39:26.982Z,2.31
2016-12-05T01:39:53.078Z,2.29
2016-12-05T01:40:19.158Z,2.31
2016-12-05T01:40:45.248Z,2.38
2016-12-05T01:41:11.326Z,2.38
2016-12-05T01:41:37.422Z,2.31
2016-12-05T01:42:03.516Z,2.36
2016-12-05T01:42:29.590Z,2.35
2016-12-05T01:42:55.682Z,2.32
2016-12-05T01:43:21.776Z,2.28
2016-12-05T01:43:47.858Z,2.25
2016-12-05T01:44:13.943Z,2.29
2016-12-05T01:44:40.031Z,2.32
2016-12-05T01:45:06.114Z,2.31
2016-12-05T01:45:32.198Z,2.32
2016-12-05T01:45:58.297Z,2.26
2016-12-05T01:46:24.385Z,2.28
2016-12-05T01:46:50.484Z,2.31
2016-12-05T01:47:16.564Z,2.26
2016-12-05T01:47:42.647Z,2.28
2016-12-05T01:48:08.744Z,2.25
2016-12-05T01:48:34.822Z,2.28
2016-12-05T01:49:00.906Z,2.32
2016-12-05T01:49:27.002Z,2.32
2016-12-05T01:49:53.087Z,2.29
2016-12-05T01:50:19.167Z,2.18
2016-12-05T01:50:45.259Z,2.29
2016-12-05T01:51:11.350Z,2.22
2016-12-05T01:51:37.441Z,2.15
2016-12-05T01:52:03.521Z,2.2
2016-12-05T01:52:29.601Z,2.26
2016-12-05T01:52:55.699Z,2.24
2016-12-05T01:53:21.784Z,2.28
2016-12-05T01:53:47.869Z,2.22
2016-12-05T01:54:13.964Z,2.22
2016-12-05T01:54:40.149Z,2.14
2016-12-05T01:55:06.228Z,2.17
2016-12-05T01:55:32.336Z,2.17
2016-12-05T01:55:58.434Z,2.18
2016-12-05T01:56:24.511Z,2.18
2016-12-05T01:56:50.598Z,2.2
2016-12-05T01:57:16.684Z,2.15
2016-12-05T01:57:42.779Z,2.18
2016-12-05T01:58:08.872Z,2.22
2016-12-05T01:58:34.954Z,2.2
2016-12-05T01:59:01.049Z,2.2
2016-12-05T01:59:27.151Z,2.15
2016-12-05T01:59:53.224Z,2.15
2016-12-05T02:00:19.316Z,2.18
2016-12-05T02:00:45.407Z,2.22
2016-12-05T02:01:11.483Z,2.26
2016-12-05T02:01:37.566Z,2.17
2016-12-05T02:02:03.662Z,2.17
2016-12-05T02:02:29.744Z,2.11
2016-12-05T02:02:55.835Z,2.15
2016-12-05T02:03:21.918Z,2.13
2016-12-05T02:03:48.007Z,2.11
2016-12-05T02:04:14.102Z,2.2
2016-12-05T02:04:40.185Z,2.13
2016-12-05T02:05:06.267Z,2.14
2016-12-05T02:05:32.364Z,2.18
2016-12-05T02:05:58.445Z,2.22
2016-12-05T02:06:24.526Z,2.15
2016-12-05T02:06:50.627Z,2.13
2016-12-05T02:07:16.713Z,2.11
2016-12-05T02:07:42.794Z,2.15
2016-12-05T02:08:08.888Z,2.17
2016-12-05T02:08:34.970Z,2.15
2016-12-05T02:09:01.059Z,2.15
2016-12-05T02:09:27.144Z,2.1
2016-12-05T02:09:53.227Z,2.1
2016-12-05T02:10:19.323Z,2.14
2016-12-05T02:10:45.407Z,2.1
2016-12-05T02:11:11.493Z,2.07
2016-12-05T02:11:37.589Z,2.08
2016-12-05T02:12:03.681Z,1.97
2016-12-05T02:12:29.763Z,1.99
2016-12-05T02:12:55.854Z,1.95
2016-12-05T02:13:21.947Z,2.1
2016-12-05T02:13:48.027Z,2.14
2016-12-05T02:14:14.118Z,2.08
2016-12-05T02:14:40.196Z,2.11
2016-12-05T02:15:06.294Z,2.11
2016-12-05T02:15:32.385Z,2.1
2016-12-05T02:15:58.465Z,2.1
2016-12-05T02:16:24.554Z,2.1
2016-12-05T02:16:50.651Z,2.02
2016-12-05T02:17:16.757Z,2.15
2016-12-05T02:17:42.844Z,2.11
2016-12-05T02:18:08.941Z,2.07
2016-12-05T02:18:35.026Z,2.11
2016-12-05T02:19:01.116Z,2.17
2016-12-05T02:19:27.213Z,2.08
2016-12-05T02:19:53.294Z,2.07
2016-12-05T02:20:19.402Z,2.08
2016-12-05T02:20:45.495Z,2.15
2016-12-05T02:21:11.585Z,2.14
2016-12-05T02:21:37.667Z,2.11
2016-12-05T02:22:03.766Z,2.14
2016-12-05T02:22:29.849Z,2.24
2016-12-05T02:22:55.931Z,2.17
2016-12-05T02:23:22.031Z,2.17
2016-12-05T02:23:48.123Z,2.22
2016-12-05T02:24:14.202Z,2.22
2016-12-05T02:24:40.390Z,2.25
2016-12-05T02:25:06.475Z,2.22
2016-12-05T02:25:32.569Z,2.24
2016-12-05T02:25:58.659Z,2.15
2016-12-05T02:26:24.735Z,2.17
2016-12-05T02:26:50.830Z,2.17
2016-12-05T02:27:16.924Z,2.08
2016-12-05T02:27:43.005Z,2.15
2016-12-05T02:28:09.095Z,2.1
2016-12-05T02:28:35.180Z,2.1
2016-12-05T02:29:01.261Z,2.14
2016-12-05T02:29:27.345Z,2.07
2016-12-05T02:29:53.437Z,2.07
2016-12-05T02:30:19.520Z,2.08
2016-12-05T02:30:45.615Z,2.08
2016-12-05T02:31:11.694Z,1.95
2016-12-05T02:31:37.785Z,2
2016-12-05T02:32:03.876Z,2.08
2016-12-05T02:32:29.950Z,2.1
2016-12-05T02:32:56.039Z,1.97
2016-12-05T02:33:22.129Z,1.99
2016-12-05T02:33:48.213Z,1.97
2016-12-05T02:34:14.292Z,1.95
2016-12-05T02:34:40.390Z,1.88
2016-12-05T02:35:06.477Z,1.89
2016-12-05T02:35:32.560Z,1.84
2016-12-05T02:35:58.649Z,1.89
2016-12-05T02:36:24.734Z,1.85
2016-12-05T02:36:50.827Z,1.78
2016-12-05T02:37:16.913Z,1.88
2016-12-05T02:37:42.997Z,1.87
2016-12-05T02:38:09.094Z,1.84
2016-12-05T02:38:35.180Z,1.89
2016-12-05T02:39:01.261Z,1.85
2016-12-05T02:39:27.355Z,1.92
2016-12-05T02:39:53.443Z,1.91
2016-12-05T02:40:19.520Z,1.92
2016-12-05T02:40:45.614Z,1.95
2016-12-05T02:41:11.705Z,2.04
2016-12-05T02:41:37.788Z,1.97
2016-12-05T02:42:03.877Z,1.94
2016-12-05T02:42:29.959Z,1.97
2016-12-05T02:42:56.056Z,2.06
2016-12-05T02:43:22.148Z,2.08
2016-12-05T02:43:48.223Z,2.11
2016-12-05T02:44:14.313Z,2.13
2016-12-05T02:44:40.408Z,2.11
2016-12-05T02:45:06.487Z,1.97
2016-12-05T02:45:32.574Z,1.97
2016-12-05T02:45:58.666Z,1.97
2016-12-05T02:46:24.743Z,2.02
2016-12-05T02:46:50.828Z,1.97
2016-12-05T02:47:16.912Z,1.97
2016-12-05T02:47:43.005Z,1.95
2016-12-05T02:48:09.102Z,1.88
2016-12-05T02:48:35.179Z,1.88
2016-12-05T02:49:01.266Z,1.84
2016-12-05T02:49:27.363Z,1.89
2016-12-05T02:49:53.446Z,1.88
2016-12-05T02:50:19.529Z,1.84
2016-12-05T02:50:45.622Z,1.88
2016-12-05T02:51:11.703Z,1.95
2016-12-05T02:51:37.781Z,1.85
2016-12-05T02:52:03.877Z,1.87
2016-12-05T02:52:29.961Z,1.87
2016-12-05T02:52:56.051Z,1.81
2016-12-05T02:53:22.132Z,1.77
2016-12-05T02:53:48.220Z,1.91
2016-12-05T02:54:14.311Z,1.78
2016-12-05T02:54:40.395Z,1.76
2016-12-05T02:55:06.506Z,1.77
2016-12-05T02:55:32.605Z,1.7
2016-12-05T02:55:58.690Z,1.7
2016-12-05T02:56:24.762Z,1.87
2016-12-05T02:56:50.889Z,1.89
2016-12-05T02:57:16.975Z,1.91
2016-12-05T02:57:43.055Z,1.8
2016-12-05T02:58:09.146Z,1.78
2016-12-05T02:58:35.219Z,1.7
2016-12-05T02:59:01.323Z,1.73
2016-12-05T02:59:27.410Z,1.77
2016-12-05T02:59:53.487Z,1.73
2016-12-05T03:00:19.580Z,1.73
2016-12-05T03:00:45.668Z,1.8
2016-12-05T03:01:11.747Z,1.76
2016-12-05T03:01:37.836Z,1.81
2016-12-05T03:02:03.961Z,1.8
2016-12-05T03:02:30.035Z,1.81
2016-12-05T03:02:56.126Z,1.77
2016-12-05T03:03:22.215Z,1.88
2016-12-05T03:03:48.295Z,1.87
2016-12-05T03:04:14.377Z,1.8
2016-12-05T03:04:40.472Z,1.91
2016-12-05T03:05:06.554Z,1.92
2016-12-05T03:05:32.630Z,1.97
2016-12-05T03:05:58.725Z,1.94
2016-12-05T03:06:24.807Z,1.95
2016-12-05T03:06:50.888Z,2.08
2016-12-05T03:07:16.979Z,2.11
2016-12-05T03:07:43.070Z,2.14
2016-12-05T03:08:09.143Z,2.08
2016-12-05T03:08:35.234Z,2.14
2016-12-05T03:09:01.326Z,2.17
2016-12-05T03:09:27.406Z,2.11
2016-12-05T03:09:53.490Z,2.14
2016-12-05T03:10:19.570Z,2.1
2016-12-05T03:10:45.662Z,2.08
2016-12-05T03:11:11.779Z,1.95
2016-12-05T03:11:37.858Z,1.89
2016-12-05T03:12:03.946Z,1.85
2016-12-05T03:12:30.043Z,1.74
2016-12-05T03:12:56.115Z,1.73
2016-12-05T03:13:22.201Z,1.63
2016-12-05T03:13:48.298Z,1.55
2016-12-05T03:14:14.375Z,1.55
2016-12-05T03:14:40.463Z,1.6
2016-12-05T03:15:06.549Z,1.58
2016-12-05T03:15:32.644Z,1.55
2016-12-05T03:15:58.742Z,1.62
2016-12-05T03:16:24.821Z,1.6
2016-12-05T03:16:50.910Z,1.6
2016-12-05T03:17:17.008Z,1.56
2016-12-05T03:17:43.088Z,1.6
2016-12-05T03:18:09.173Z,1.6
2016-12-05T03:18:35.267Z,1.56
2016-12-05T03:19:01.351Z,1.59
2016-12-05T03:19:28.854Z,1.63
2016-12-05T03:19:54.928Z,1.74
2016-12-05T03:20:21.016Z,1.76
2016-12-05T03:20:47.097Z,1.8
2016-12-05T03:21:13.190Z,1.8
2016-12-05T03:21:39.283Z,1.78
2016-12-05T03:22:05.363Z,1.78
2016-12-05T03:22:31.458Z,1.74
2016-12-05T03:22:57.551Z,1.76
2016-12-05T03:23:23.631Z,1.77
2016-12-05T03:23:49.720Z,1.85
2016-12-05T03:24:15.812Z,1.85
2016-12-05T03:24:41.896Z,1.87
2016-12-05T03:25:07.980Z,1.87
2016-12-05T03:25:34.075Z,1.94
2016-12-05T03:26:00.158Z,1.87
2016-12-05T03:26:26.254Z,1.95
2016-12-05T03:26:52.332Z,1.92
2016-12-05T03:27:18.419Z,1.99
2016-12-05T03:27:44.511Z,1.99
2016-12-05T03:28:10.590Z,1.99
2016-12-05T03:28:36.671Z,2
2016-12-05T03:29:02.763Z,2
2016-12-05T03:29:28.844Z,1.95
2016-12-05T03:29:54.925Z,1.89
2016-12-05T03:30:21.027Z,1.85
2016-12-05T03:30:47.112Z,1.87
2016-12-05T03:31:13.190Z,1.8
2016-12-05T03:31:39.289Z,1.77
2016-12-05T03:32:05.366Z,1.89
2016-12-05T03:32:31.460Z,1.81
2016-12-05T03:32:57.548Z,1.81
2016-12-05T03:33:23.630Z,1.76
2016-12-05T03:33:49.729Z,1.71
2016-12-05T03:34:15.820Z,1.74
2016-12-05T03:34:41.904Z,1.67
2016-12-05T03:35:07.999Z,1.6
2016-12-05T03:35:34.118Z,1.59
2016-12-05T03:36:00.197Z,1.56
2016-12-05T03:36:26.290Z,1.59
2016-12-05T03:36:52.387Z,1.6
2016-12-05T03:37:18.473Z,1.58
2016-12-05T03:37:44.557Z,1.55
2016-12-05T03:38:10.640Z,1.52
2016-12-05T03:38:36.732Z,1.59
2016-12-05T03:39:02.822Z,1.56
2016-12-05T03:39:28.928Z,1.62
2016-12-05T03:39:55.018Z,1.59
2016-12-05T03:40:21.108Z,1.6
2016-12-05T03:40:47.186Z,1.67
2016-12-05T03:41:13.275Z,1.71
2016-12-05T03:41:39.373Z,1.68
2016-12-05T03:42:05.456Z,1.71
2016-12-05T03:42:31.541Z,1.74
2016-12-05T03:42:57.629Z,1.78
2016-12-05T03:43:23.722Z,1.78
2016-12-05T03:43:49.818Z,1.78
2016-12-05T03:44:15.891Z,1.81
2016-12-05T03:44:41.981Z,1.85
2016-12-05T03:45:08.077Z,1.84
2016-12-05T03:45:34.155Z,1.88
2016-12-05T03:46:00.245Z,1.88
2016-12-05T03:46:26.341Z,1.95
2016-12-05T03:46:52.424Z,1.92
2016-12-05T03:47:18.504Z,2.02
2016-12-05T03:47:44.606Z,1.99
2016-12-05T03:48:10.693Z,2.02
2016-12-05T03:48:36.773Z,2.06
2016-12-05T03:49:02.869Z,1.97
2016-12-05T03:49:28.954Z,2.13
2016-12-05T03:49:55.035Z,2.13
2016-12-05T03:50:21.123Z,2.08
2016-12-05T03:50:47.219Z,2.15
2016-12-05T03:51:13.295Z,2.14
2016-12-05T03:51:39.386Z,2.11
2016-12-05T03:52:05.478Z,2.15
2016-12-05T03:52:31.557Z,2.15
2016-12-05T03:52:57.643Z,2.2
2016-12-05T03:53:23.742Z,2.29
2016-12-05T03:53:49.829Z,2.17
2016-12-05T03:54:15.919Z,2.17
2016-12-05T03:54:41.998Z,2.24
2016-12-05T03:55:08.086Z,2.31
2016-12-05T03:55:34.281Z,2.22
2016-12-05T03:56:00.357Z,2.26
2016-12-05T03:56:26.445Z,2.17
2016-12-05T03:56:52.542Z,2.26
2016-12-05T03:57:18.626Z,2.32
2016-12-05T03:57:44.710Z,2.32
2016-12-05T03:58:10.802Z,2.29
2016-12-05T03:58:36.889Z,2.22
2016-12-05T03:59:02.966Z,2.15
2016-12-05T03:59:29.063Z,2.24
2016-12-05T03:59:55.146Z,2.24
2016-12-05T04:00:21.238Z,2.15
2016-12-05T04:00:47.319Z,2.13
2016-12-05T04:01:13.399Z,2.14
2016-12-05T04:01:39.494Z,2.13
2016-12-05T04:02:05.580Z,2.11
2016-12-05T04:02:31.662Z,2.17
2016-12-05T04:02:57.754Z,2.13
2016-12-05T04:03:23.837Z,2.13
2016-12-05T04:03:49.918Z,2.14
2016-12-05T04:04:16.008Z,2.1
2016-12-05T04:04:42.107Z,2.11
2016-12-05T04:05:08.190Z,2.13
2016-12-05T04:05:34.281Z,2.11
2016-12-05T04:06:00.386Z,2.1
2016-12-05T04:06:26.479Z,2.11
2016-12-05T04:06:52.573Z,2.1
2016-12-05T04:07:18.657Z,2.15
2016-12-05T04:07:44.751Z,2.15
2016-12-05T04:08:10.842Z,2.07
2016-12-05T04:08:36.916Z,2.17
2016-12-05T04:09:03.008Z,2.18
2016-12-05T04:09:29.106Z,2.11
2016-12-05T04:09:55.187Z,2.18
2016-12-05T04:10:21.276Z,2.2
2016-12-05T04:10:47.369Z,2.11
2016-12-05T04:11:13.457Z,2.08
2016-12-05T04:11:39.554Z,1.95
2016-12-05T04:12:05.630Z,1.94
2016-12-05T04:12:31.718Z,1.99
2016-12-05T04:12:57.816Z,1.84
2016-12-05T04:13:23.899Z,1.76
2016-12-05T04:13:49.985Z,1.85
2016-12-05T04:14:16.085Z,1.78
2016-12-05T04:14:42.171Z,1.8
2016-12-05T04:15:08.253Z,1.81
2016-12-05T04:15:34.347Z,1.88
2016-12-05T04:16:00.432Z,1.85
2016-12-05T04:16:26.530Z,1.88
2016-12-05T04:16:52.613Z,1.85
2016-12-05T04:17:18.701Z,1.87
2016-12-05T04:17:44.800Z,1.88
2016-12-05T04:18:10.887Z,1.88
2016-12-05T04:18:36.967Z,1.85
2016-12-05T04:19:03.068Z,1.91
2016-12-05T04:19:29.155Z,2.02
2016-12-05T04:19:55.236Z,2.14
2016-12-05T04:20:21.353Z,2.06
2016-12-05T04:20:47.444Z,2.07
2016-12-05T04:21:13.522Z,2.11
2016-12-05T04:21:39.614Z,2.06
2016-12-05T04:22:05.691Z,2.13
2016-12-05T04:22:31.789Z,2.1
2016-12-05T04:22:57.875Z,2.14
2016-12-05T04:23:23.955Z,2.1
2016-12-05T04:23:50.049Z,2.13
2016-12-05T04:24:16.129Z,2.18
2016-12-05T04:24:42.208Z,2.15
2016-12-05T04:25:08.301Z,2.15
2016-12-05T04:25:34.398Z,2.11
2016-12-05T04:26:00.582Z,2.15
2016-12-05T04:26:26.677Z,2.13
2016-12-05T04:26:52.775Z,2.14
2016-12-05T04:27:18.872Z,2.2
2016-12-05T04:27:44.964Z,2.17
2016-12-05T04:28:11.041Z,2.2
2016-12-05T04:28:37.132Z,2.22
2016-12-05T04:29:03.226Z,2.26
2016-12-05T04:29:29.304Z,2.22
2016-12-05T04:29:55.395Z,2.24
2016-12-05T04:30:21.488Z,2.26
2016-12-05T04:30:47.573Z,2.29
2016-12-05T04:31:13.661Z,2.18
2016-12-05T04:31:39.752Z,2.25
2016-12-05T04:32:05.839Z,2.15
2016-12-05T04:32:31.918Z,2.31
2016-12-05T04:32:58.015Z,2.28
2016-12-05T04:33:24.098Z,2.18
2016-12-05T04:33:50.176Z,2.28
2016-12-05T04:34:16.273Z,2.32
2016-12-05T04:34:42.355Z,2.22
2016-12-05T04:35:08.433Z,2.17
2016-12-05T04:35:34.526Z,2.2
2016-12-05T04:36:00.622Z,2.2
2016-12-05T04:36:26.703Z,2.28
2016-12-05T04:36:52.789Z,2.25
2016-12-05T04:37:18.881Z,2.18
2016-12-05T04:37:44.959Z,2.22
2016-12-05T04:38:11.046Z,2.28
2016-12-05T04:38:37.129Z,2.2
2016-12-05T04:39:03.229Z,2.33
2016-12-05T04:39:29.324Z,2.32
2016-12-05T04:39:55.401Z,2.28
2016-12-05T04:40:21.493Z,2.28
2016-12-05T04:40:47.584Z,2.31
2016-12-05T04:41:13.664Z,2.32
2016-12-05T04:41:39.754Z,2.31
2016-12-05T04:42:05.848Z,2.29
2016-12-05T04:42:31.932Z,2.26
2016-12-05T04:42:58.012Z,2.32
2016-12-05T04:43:24.107Z,2.29
2016-12-05T04:43:50.194Z,2.28
2016-12-05T04:44:16.288Z,2.31
2016-12-05T04:44:42.366Z,2.32
2016-12-05T04:45:08.457Z,2.29
2016-12-05T04:45:34.552Z,2.25
2016-12-05T04:46:00.640Z,2.29
2016-12-05T04:46:26.716Z,2.29
2016-12-05T04:46:52.813Z,2.31
2016-12-05T04:47:18.898Z,2.26
2016-12-05T04:47:44.979Z,2.28
2016-12-05T04:48:11.071Z,2.31
2016-12-05T04:48:37.161Z,2.29
2016-12-05T04:49:03.243Z,2.31
2016-12-05T04:49:29.334Z,2.32
2016-12-05T04:49:55.415Z,2.31
2016-12-05T04:50:21.513Z,2.26
2016-12-05T04:50:47.601Z,2.26
2016-12-05T04:51:13.683Z,2.26
2016-12-05T04:51:39.775Z,2.29
2016-12-05T04:52:05.866Z,2.28
2016-12-05T04:52:31.949Z,2.33
2016-12-05T04:52:58.041Z,2.32
2016-12-05T04:53:24.133Z,2.32
2016-12-05T04:53:50.210Z,2.32
2016-12-05T04:54:16.302Z,2.31
2016-12-05T04:54:42.395Z,2.29
2016-12-05T04:55:08.480Z,2.29
2016-12-05T04:55:34.570Z,2.33
2016-12-05T04:56:00.749Z,2.31
2016-12-05T04:56:26.840Z,2.28
2016-12-05T04:56:52.929Z,2.31
2016-12-05T04:57:19.010Z,2.28
2016-12-05T04:57:45.097Z,2.28
2016-12-05T04:58:11.193Z,2.31
2016-12-05T04:58:37.278Z,2.25
2016-12-05T04:59:03.365Z,2.28
2016-12-05T04:59:29.457Z,2.31
2016-12-05T04:59:55.540Z,2.29
2016-12-05T05:00:21.619Z,2.31
2016-12-05T05:00:47.706Z,2.32
2016-12-05T05:01:14.095Z,2.2
2016-12-05T05:01:40.191Z,2.26
2016-12-05T05:02:06.274Z,2.26
2016-12-05T05:02:32.364Z,2.25
2016-12-05T05:02:58.459Z,2.28
2016-12-05T05:03:24.547Z,2.28
2016-12-05T05:03:50.629Z,2.25
2016-12-05T05:04:16.728Z,2.32
2016-12-05T05:04:42.810Z,2.28
2016-12-05T05:05:08.890Z,2.26
2016-12-05T05:05:34.986Z,2.29
2016-12-05T05:06:01.073Z,2.28
2016-12-05T05:06:27.159Z,2.29
2016-12-05T05:06:53.241Z,2.26
2016-12-05T05:07:19.324Z,2.35
2016-12-05T05:07:45.418Z,2.25
2016-12-05T05:08:11.508Z,2.26
2016-12-05T05:08:37.610Z,2.31
2016-12-05T05:09:03.731Z,2.28
2016-12-05T05:09:29.821Z,2.35
2016-12-05T05:09:55.899Z,2.31
2016-12-05T05:10:21.990Z,2.31
2016-12-05T05:10:48.083Z,2.29
2016-12-05T05:11:14.159Z,2.31
2016-12-05T05:11:40.246Z,2.28
2016-12-05T05:12:06.328Z,2.28
2016-12-05T05:12:32.419Z,2.28
2016-12-05T05:12:58.508Z,2.31
2016-12-05T05:13:24.593Z,2.29
2016-12-05T05:13:50.683Z,2.28
2016-12-05T05:14:16.780Z,2.28
2016-12-05T05:14:42.859Z,2.36
2016-12-05T05:15:08.948Z,2.28
2016-12-05T05:15:35.043Z,2.22
2016-12-05T05:16:01.119Z,2.26
2016-12-05T05:16:27.206Z,2.31
2016-12-05T05:16:53.303Z,2.28
2016-12-05T05:17:19.392Z,2.32
2016-12-05T05:17:45.474Z,2.28
2016-12-05T05:18:11.576Z,2.35
2016-12-05T05:18:37.663Z,2.28
2016-12-05T05:19:03.746Z,2.29
2016-12-05T05:19:29.838Z,2.28
2016-12-05T05:19:55.925Z,2.29
2016-12-05T05:20:22.002Z,2.29
2016-12-05T05:20:48.091Z,2.2
2016-12-05T05:21:14.218Z,2.26
2016-12-05T05:21:40.296Z,2.29
2016-12-05T05:22:06.384Z,2.22
2016-12-05T05:22:32.477Z,2.28
2016-12-05T05:22:58.559Z,2.17
2016-12-05T05:23:24.652Z,2.18
2016-12-05T05:23:50.734Z,2.15
2016-12-05T05:24:16.831Z,2.15
2016-12-05T05:24:42.925Z,2.17
2016-12-05T05:25:09.003Z,2.11
2016-12-05T05:25:35.095Z,2.17
2016-12-05T05:26:01.190Z,2.13
2016-12-05T05:26:27.370Z,2.06
2016-12-05T05:26:53.458Z,1.97
2016-12-05T05:27:19.575Z,2
2016-12-05T05:27:45.659Z,1.97
2016-12-05T05:28:11.743Z,2.02
2016-12-05T05:28:37.834Z,2.02
2016-12-05T05:29:03.921Z,2.04
2016-12-05T05:29:30.021Z,1.97
2016-12-05T05:29:56.106Z,2.07
2016-12-05T05:30:22.191Z,1.97
2016-12-05T05:30:48.287Z,2.04
2016-12-05T05:31:14.376Z,2.06
2016-12-05T05:31:40.755Z,1.94
2016-12-05T05:32:06.853Z,1.87
2016-12-05T05:32:32.940Z,1.85
2016-12-05T05:32:59.019Z,1.85
2016-12-05T05:33:25.111Z,1.85
2016-12-05T05:33:51.198Z,1.77
2016-12-05T05:34:17.288Z,1.71
2016-12-05T05:34:43.371Z,1.78
2016-12-05T05:35:09.452Z,1.78
2016-12-05T05:35:35.551Z,1.62
2016-12-05T05:36:01.633Z,1.78
2016-12-05T05:36:27.717Z,1.66
2016-12-05T05:36:53.811Z,1.6
2016-12-05T05:37:19.899Z,1.59
2016-12-05T05:37:45.981Z,1.52
2016-12-05T05:38:12.069Z,1.6
2016-12-05T05:38:38.159Z,1.42
2016-12-05T05:39:04.239Z,1.5
2016-12-05T05:39:30.331Z,1.38
2016-12-05T05:39:56.414Z,1.42
2016-12-05T05:40:22.513Z,1.38
2016-12-05T05:40:48.603Z,1.34
2016-12-05T05:41:14.685Z,1.22
2016-12-05T05:41:40.779Z,1.26
2016-12-05T05:42:06.875Z,1.22
2016-12-05T05:42:32.956Z,1.14
2016-12-05T05:42:59.046Z,1.19
2016-12-05T05:43:25.142Z,1.08
2016-12-05T05:43:51.228Z,1.05
2016-12-05T05:44:17.313Z,1.12
2016-12-05T05:44:43.410Z,1.13
2016-12-05T05:45:09.487Z,1.17
2016-12-05T05:45:35.582Z,0.99
2016-12-05T05:46:01.664Z,1.04
2016-12-05T05:46:27.744Z,1.02
2016-12-05T05:46:53.841Z,0.99
2016-12-05T05:47:19.923Z,1.04
2016-12-05T05:47:46.011Z,0.94
2016-12-05T05:48:12.107Z,0.99